Solon Mills, Illinois
Current Conditions -  °F | °C
As of 10:35 PM on Sunday 21 Dec 2014 (Local Time) from KBUU Reporting Station
Overcast Overcast  
Wind Chill: 25°   Ceiling: 2700
Heat Index: 33°   Visibility: 10mi
Dew Point: 29°   Wind: 9mph
Humidity: 85%   Direction: 160°SSE
Pressure: 30"   Gusts: NA
Location:  42.44°N, 88.27°W
Report Text: KBUU 220435Z AUTO 16008KT 10SM OVC027 01/M02 A3000 RMK AO2 T00061016
Loading
Personal Weather Stations






























Interactive Weather Map New forecast layout! Learn more

10-Day Weather Forecast

Advertisements
Track Severe Weather on mobile